createdAt,value
2018-07-04T04:11:10.744Z,994.8
2018-07-04T04:11:30.887Z,994.8
2018-07-04T04:11:51.049Z,994.9
2018-07-04T04:12:11.207Z,994.8
2018-07-04T04:12:31.361Z,994.9
2018-07-04T04:12:51.526Z,994.8
2018-07-04T04:13:11.692Z,994.9
2018-07-04T04:42:31.087Z,994.8
2018-07-04T04:42:51.243Z,994.8
2018-07-04T04:43:11.393Z,994.8
2018-07-04T04:43:31.567Z,994.8
2018-07-04T04:43:51.726Z,994.8
2018-07-04T04:44:11.872Z,994.8
2018-07-04T04:44:32.033Z,994.8
2018-07-04T04:44:52.188Z,994.8
2018-07-04T04:45:12.354Z,994.8
2018-07-04T04:45:32.516Z,994.8
2018-07-04T04:45:52.660Z,994.8
2018-07-04T05:05:29.120Z,994.8
2018-07-04T05:05:49.312Z,994.8
2018-07-04T05:06:09.470Z,994.8
2018-07-04T05:06:29.644Z,994.8
2018-07-04T05:06:49.791Z,994.8
2018-07-04T05:07:09.952Z,994.8
2018-07-04T05:07:30.103Z,994.8
2018-07-04T05:07:50.293Z,994.8
2018-07-04T05:08:10.508Z,994.8
2018-07-04T05:08:30.643Z,994.8
2018-07-04T05:08:50.785Z,994.8
2018-07-04T05:22:26.852Z,994.8
2018-07-04T05:22:47.032Z,994.8
2018-07-04T05:23:07.157Z,994.8
2018-07-04T05:23:27.312Z,994.8
2018-07-04T05:23:47.451Z,994.9
2018-07-04T05:24:07.679Z,994.8
2018-07-04T05:24:27.838Z,994.9
2018-07-04T05:24:48.027Z,994.9
2018-07-04T05:30:13.203Z,994.9
2018-07-04T05:30:33.357Z,994.9
2018-07-04T05:30:53.535Z,994.9
2018-07-04T05:34:15.684Z,994.9
2018-07-04T05:34:35.904Z,995
2018-07-04T05:34:56.101Z,995
2018-07-04T05:37:56.892Z,995
2018-07-04T05:39:30.560Z,995
2018-07-04T05:41:22.930Z,995
2018-07-04T05:41:43.097Z,995
2018-07-04T05:43:19.673Z,995
2018-07-04T05:45:22.755Z,995
2018-07-04T05:45:42.966Z,995
2018-07-04T05:46:03.171Z,995
2018-07-04T05:46:23.319Z,995
2018-07-04T05:48:09.988Z,995
2018-07-04T05:48:30.127Z,995
2018-07-04T05:48:50.436Z,995
2018-07-04T05:49:10.589Z,995
2018-07-04T05:49:30.809Z,995
2018-07-04T05:49:50.996Z,995
2018-07-04T05:50:11.187Z,995
2018-07-04T05:50:31.355Z,995
2018-07-04T05:50:51.530Z,995
2018-07-04T05:51:11.783Z,995
2018-07-04T05:51:31.934Z,995
2018-07-04T05:51:52.117Z,995
2018-07-04T05:52:12.316Z,995
2018-07-04T05:53:53.284Z,995
2018-07-04T05:54:13.515Z,995
2018-07-04T05:54:33.721Z,995
2018-07-04T05:54:53.885Z,995
2018-07-04T05:55:14.059Z,995
2018-07-04T05:55:34.235Z,994.9
2018-07-04T05:55:54.405Z,995
2018-07-04T05:56:14.652Z,995
2018-07-04T05:56:34.797Z,994.9
2018-07-04T05:56:55.001Z,994.9
2018-07-04T05:57:15.179Z,994.9
2018-07-04T05:57:35.358Z,994.9
2018-07-04T05:57:56.284Z,994.9
2018-07-04T05:58:16.482Z,995
2018-07-04T05:58:36.626Z,995
2018-07-04T05:58:56.776Z,994.9
2018-07-04T05:59:16.981Z,995
2018-07-04T05:59:37.163Z,994.9
2018-07-04T05:59:57.328Z,994.9
2018-07-04T06:00:17.476Z,994.9
2018-07-04T06:00:37.684Z,995
2018-07-04T06:00:57.855Z,994.9
2018-07-04T06:01:18.107Z,994.9
2018-07-04T06:01:38.343Z,994.9
2018-07-04T06:01:58.519Z,994.9
2018-07-04T06:02:18.702Z,994.9
2018-07-04T06:02:38.952Z,994.9
2018-07-04T06:02:59.288Z,994.9
2018-07-04T06:03:19.531Z,994.9
2018-07-04T06:03:39.745Z,994.9
2018-07-04T06:03:59.931Z,994.9
2018-07-04T06:04:20.094Z,995
2018-07-04T06:04:41.098Z,994.9
2018-07-04T06:05:01.250Z,994.9
2018-07-04T06:05:21.470Z,994.9
2018-07-04T06:05:41.645Z,994.9
2018-07-04T06:06:01.804Z,994.9
2018-07-04T06:06:22.005Z,994.9
2018-07-04T06:06:42.253Z,994.9
2018-07-04T06:07:02.415Z,994.9
2018-07-04T06:07:22.588Z,994.9
2018-07-04T06:07:42.752Z,994.9
2018-07-04T06:08:02.916Z,994.9
2018-07-04T06:08:23.083Z,994.9
2018-07-04T06:08:43.301Z,994.9
2018-07-04T06:09:03.508Z,995
2018-07-04T06:09:23.652Z,994.9
2018-07-04T06:09:43.918Z,995
2018-07-04T06:10:04.093Z,994.9
2018-07-04T06:10:24.246Z,994.9
2018-07-04T06:10:44.414Z,994.9
2018-07-04T06:11:04.572Z,994.9
2018-07-04T06:11:24.748Z,994.9
2018-07-04T06:11:44.962Z,994.9
2018-07-04T06:12:05.131Z,994.9
2018-07-04T06:12:25.294Z,994.9
2018-07-04T06:12:45.469Z,995
2018-07-04T06:13:05.622Z,994.9
2018-07-04T06:13:25.842Z,995
2018-07-04T06:13:46.004Z,994.9
2018-07-04T06:14:06.202Z,995
2018-07-04T06:14:26.355Z,995
2018-07-04T06:14:46.551Z,994.9
2018-07-04T06:15:06.745Z,995
2018-07-04T06:15:26.867Z,995
2018-07-04T06:15:47.032Z,995
2018-07-04T06:16:07.201Z,995
2018-07-04T06:16:27.342Z,994.9
2018-07-04T06:16:49.008Z,995
2018-07-04T06:17:09.194Z,995
2018-07-04T06:17:29.333Z,994.9
2018-07-04T06:17:49.590Z,994.9
2018-07-04T06:18:09.750Z,995
2018-07-04T06:18:29.924Z,995
2018-07-04T06:18:50.087Z,995
2018-07-04T06:19:10.254Z,995
2018-07-04T06:19:30.412Z,994.9
2018-07-04T06:19:50.884Z,994.9
2018-07-04T06:20:11.048Z,994.9
2018-07-04T06:20:31.229Z,995
2018-07-04T06:20:51.368Z,994.9
2018-07-04T06:21:11.557Z,995
2018-07-04T06:21:31.704Z,995
2018-07-04T06:21:51.874Z,994.9
2018-07-04T06:22:12.067Z,994.9
2018-07-04T06:22:32.243Z,994.9
2018-07-04T06:22:52.404Z,994.9
2018-07-04T06:23:12.590Z,994.9
2018-07-04T06:23:32.761Z,994.9
2018-07-04T06:23:54.542Z,994.9
2018-07-04T06:24:14.745Z,994.9
2018-07-04T06:24:34.965Z,994.9
2018-07-04T06:24:55.061Z,995
2018-07-04T06:25:15.255Z,994.9
2018-07-04T06:25:35.475Z,994.9
2018-07-04T06:25:55.686Z,994.9
2018-07-04T06:26:15.812Z,994.9
2018-07-04T06:26:36.036Z,994.9
2018-07-04T06:26:56.193Z,994.9
2018-07-04T06:27:16.366Z,994.9
2018-07-04T06:27:36.588Z,995
2018-07-04T06:27:56.758Z,995
2018-07-04T06:28:16.956Z,995
2018-07-04T06:28:37.131Z,994.9
2018-07-04T06:28:57.321Z,994.9
2018-07-04T06:29:17.480Z,994.9
2018-07-04T06:29:37.646Z,994.9
2018-07-04T06:29:57.836Z,994.9
2018-07-04T06:30:18.006Z,994.9
2018-07-04T06:30:38.159Z,994.9
2018-07-04T06:30:58.333Z,994.9
2018-07-04T06:31:18.583Z,994.9
2018-07-04T06:31:38.727Z,994.9
2018-07-04T06:31:58.872Z,994.9
2018-07-04T06:32:19.058Z,994.9
2018-07-04T06:32:39.369Z,994.9
2018-07-04T06:32:59.544Z,994.9
2018-07-04T06:33:19.701Z,994.9
2018-07-04T06:33:39.857Z,994.9
2018-07-04T06:34:00.032Z,994.9
2018-07-04T06:34:20.267Z,994.9
2018-07-04T06:34:40.431Z,994.9
2018-07-04T06:35:00.605Z,994.9
2018-07-04T06:35:20.765Z,994.9
2018-07-04T06:35:40.950Z,994.9
2018-07-04T06:36:01.121Z,994.9
2018-07-04T06:36:21.300Z,994.9
2018-07-04T06:36:41.456Z,994.9
2018-07-04T06:37:01.624Z,994.9
2018-07-04T06:37:21.796Z,994.9
2018-07-04T06:37:41.976Z,994.9
2018-07-04T06:38:02.113Z,994.9
2018-07-04T06:38:22.287Z,994.9
2018-07-04T06:38:42.475Z,994.8
2018-07-04T06:39:02.728Z,994.8
2018-07-04T06:39:22.989Z,994.8
2018-07-04T06:39:43.142Z,994.8
2018-07-04T06:40:03.330Z,994.9
2018-07-04T06:40:23.490Z,994.8
2018-07-04T06:40:43.735Z,994.8
2018-07-04T06:41:03.872Z,994.9
2018-07-04T06:41:24.052Z,994.8
2018-07-04T06:41:44.212Z,994.9
2018-07-04T06:42:04.393Z,994.9
2018-07-04T06:42:24.558Z,994.9
2018-07-04T06:42:44.731Z,994.9
2018-07-04T06:43:04.897Z,994.9
2018-07-04T06:43:25.023Z,994.9
2018-07-04T06:43:45.211Z,994.8
2018-07-04T06:44:05.387Z,994.9
2018-07-04T06:44:25.556Z,994.9
2018-07-04T06:44:45.726Z,994.9
2018-07-04T06:45:05.911Z,994.9
2018-07-04T06:45:26.103Z,994.9
2018-07-04T06:45:46.261Z,994.9
2018-07-04T06:46:06.442Z,994.9
2018-07-04T06:46:26.658Z,994.9
2018-07-04T06:46:46.797Z,994.9
2018-07-04T06:47:06.949Z,994.9
2018-07-04T06:47:27.109Z,994.9
2018-07-04T06:47:47.286Z,994.9
2018-07-04T06:48:07.455Z,994.9
2018-07-04T06:48:27.609Z,994.9
2018-07-04T06:48:47.857Z,994.9
2018-07-04T06:49:08.060Z,994.9
2018-07-04T06:49:28.269Z,994.9
2018-07-04T06:49:48.463Z,994.9
2018-07-04T06:50:08.640Z,994.9
2018-07-04T06:50:28.816Z,994.9
2018-07-04T06:50:48.979Z,994.9
2018-07-04T06:51:09.155Z,994.9
2018-07-04T06:51:29.421Z,994.9
2018-07-04T06:51:49.590Z,994.9
2018-07-04T06:52:09.795Z,994.9
2018-07-04T06:52:29.933Z,994.9
2018-07-04T06:52:50.121Z,994.9
2018-07-04T06:53:10.280Z,994.9
2018-07-04T06:53:30.456Z,994.9
2018-07-04T06:53:51.532Z,994.9
2018-07-04T06:54:11.754Z,994.9
2018-07-04T06:54:32.644Z,994.9
2018-07-04T06:54:54.012Z,994.9
2018-07-04T06:55:15.401Z,994.9
2018-07-04T06:55:36.350Z,994.9
2018-07-04T06:55:56.507Z,994.9
2018-07-04T06:56:16.680Z,994.9
2018-07-04T06:56:37.553Z,994.9
2018-07-04T06:56:57.740Z,994.9
2018-07-04T06:57:17.899Z,994.9
2018-07-04T06:57:38.897Z,994.9
2018-07-04T06:57:59.049Z,994.9
2018-07-04T06:58:19.237Z,994.9
2018-07-04T06:58:39.407Z,994.9
2018-07-04T06:58:59.571Z,994.9
2018-07-04T06:59:19.770Z,994.9
2018-07-04T06:59:40.014Z,994.9
2018-07-04T07:00:00.192Z,994.9
2018-07-04T07:00:21.567Z,994.9
2018-07-04T07:00:41.719Z,994.9
2018-07-04T07:01:01.925Z,994.9
2018-07-04T07:01:22.092Z,994.9
2018-07-04T07:01:42.252Z,994.9
2018-07-04T07:02:02.440Z,994.9
2018-07-04T07:02:22.622Z,994.9
2018-07-04T07:02:43.602Z,994.9
2018-07-04T07:03:03.776Z,994.9
2018-07-04T07:03:24.714Z,994.9
2018-07-04T07:03:44.872Z,994.9
2018-07-04T07:04:05.042Z,994.9
2018-07-04T07:04:25.862Z,994.9
2018-07-04T07:04:46.741Z,994.9
2018-07-04T07:05:06.909Z,994.9
2018-07-04T07:05:28.268Z,994.9
2018-07-04T07:05:48.444Z,994.9
2018-07-04T07:06:10.775Z,994.9
2018-07-04T07:06:31.471Z,994.9
2018-07-04T07:06:51.695Z,994.9
2018-07-04T07:07:11.868Z,994.9
2018-07-04T07:07:32.016Z,994.9
2018-07-04T07:07:52.176Z,994.9
2018-07-04T07:08:12.551Z,994.9
2018-07-04T07:08:33.303Z,994.9
2018-07-04T07:08:53.660Z,994.9
2018-07-04T07:09:13.836Z,994.9
2018-07-04T07:09:34.624Z,994.9
2018-07-04T07:09:55.533Z,994.9
2018-07-04T07:10:15.689Z,994.9
2018-07-04T07:10:35.841Z,994.9
2018-07-04T07:10:56.012Z,994.9
2018-07-04T07:11:16.202Z,994.9
2018-07-04T07:11:36.413Z,994.9
2018-07-04T07:11:56.569Z,994.9
2018-07-04T07:12:17.584Z,994.9
2018-07-04T07:12:37.774Z,994.9
2018-07-04T07:12:57.929Z,994.9
2018-07-04T07:13:18.113Z,994.9
2018-07-04T07:13:38.262Z,994.9
2018-07-04T07:13:58.419Z,994.9
2018-07-04T07:14:18.572Z,994.9
2018-07-04T07:14:38.825Z,994.9
2018-07-04T07:14:59.553Z,994.9
2018-07-04T07:15:19.767Z,994.9
2018-07-04T07:15:39.981Z,994.9
2018-07-04T07:16:00.154Z,994.9
2018-07-04T07:16:20.365Z,994.9
2018-07-04T07:16:41.245Z,994.9
2018-07-04T07:17:01.535Z,994.9
2018-07-04T07:17:21.703Z,994.9
2018-07-04T07:17:41.947Z,994.9
2018-07-04T07:18:02.162Z,994.9
2018-07-04T07:18:24.109Z,994.9
2018-07-04T07:18:44.292Z,994.9
2018-07-04T07:19:04.451Z,994.9
2018-07-04T07:19:24.624Z,994.9
2018-07-04T07:19:46.047Z,994.9
2018-07-04T07:20:06.207Z,995
2018-07-04T07:20:26.345Z,995
2018-07-04T07:20:46.534Z,994.9
2018-07-04T07:21:06.743Z,994.9
2018-07-04T07:21:26.876Z,994.9
2018-07-04T07:21:47.705Z,994.9
2018-07-04T07:22:09.112Z,994.9
2018-07-04T07:22:29.265Z,994.9
2018-07-04T07:22:50.145Z,994.9
2018-07-04T07:23:10.320Z,995
2018-07-04T07:23:31.584Z,995
2018-07-04T07:23:52.265Z,994.9
2018-07-04T07:24:12.421Z,994.9
2018-07-04T07:24:34.815Z,995
2018-07-04T07:24:55.070Z,994.9
2018-07-04T07:25:15.273Z,994.9
2018-07-04T07:25:35.382Z,994.9
2018-07-04T07:25:55.551Z,994.9
2018-07-04T07:26:15.711Z,994.9
2018-07-04T07:26:35.863Z,994.9
2018-07-04T07:26:56.010Z,994.9
2018-07-04T07:27:16.162Z,994.9
2018-07-04T07:27:36.407Z,994.9
2018-07-04T07:27:56.497Z,994.9
2018-07-04T07:28:16.664Z,994.9
2018-07-04T07:28:36.833Z,994.9
2018-07-04T07:28:57.002Z,994.9
2018-07-04T07:29:17.135Z,994.9
2018-07-04T07:29:37.319Z,994.9
2018-07-04T07:29:57.482Z,994.9
2018-07-04T07:30:18.916Z,994.8
2018-07-04T07:30:39.093Z,994.9
2018-07-04T07:30:59.301Z,994.9
2018-07-04T07:31:19.473Z,994.9
2018-07-04T07:31:39.645Z,994.8
2018-07-04T07:31:59.844Z,994.8
2018-07-04T07:32:20.117Z,994.8
2018-07-04T07:32:40.355Z,994.9
2018-07-04T07:33:00.524Z,994.9
2018-07-04T07:33:21.424Z,994.8
2018-07-04T07:33:41.590Z,994.8
2018-07-04T07:34:02.541Z,994.8
2018-07-04T07:34:22.945Z,994.8
2018-07-04T07:34:42.881Z,994.8
2018-07-04T07:35:03.056Z,994.8
2018-07-04T07:35:23.251Z,994.8
2018-07-04T07:35:43.952Z,994.9
2018-07-04T07:36:04.137Z,994.8
2018-07-04T07:36:24.361Z,994.8
2018-07-04T07:36:44.593Z,994.8
2018-07-04T07:37:04.804Z,994.8
2018-07-04T07:37:24.987Z,994.8
2018-07-04T07:37:45.776Z,994.8
2018-07-04T07:38:05.983Z,994.8
2018-07-04T07:38:26.220Z,994.8
2018-07-04T07:38:46.435Z,994.8
2018-07-04T07:39:06.616Z,994.8
2018-07-04T07:39:26.772Z,994.8
2018-07-04T07:39:46.964Z,994.8
2018-07-04T07:40:07.215Z,994.8
2018-07-04T07:40:27.957Z,994.8
2018-07-04T07:40:48.146Z,994.8
2018-07-04T07:41:08.293Z,994.8
2018-07-04T07:41:28.453Z,994.8
2018-07-04T07:41:48.680Z,994.8
2018-07-04T07:42:09.010Z,994.8
2018-07-04T07:42:29.185Z,994.7
2018-07-04T07:42:49.348Z,994.7
2018-07-04T07:43:09.568Z,994.8
2018-07-04T07:43:29.795Z,994.7
2018-07-04T07:43:49.998Z,994.7
2018-07-04T07:44:10.173Z,994.7
2018-07-04T07:44:30.372Z,994.7
2018-07-04T07:44:50.596Z,994.7
2018-07-04T07:45:11.425Z,994.7
2018-07-04T07:45:32.294Z,994.7
2018-07-04T07:45:53.303Z,994.7
2018-07-04T07:46:13.491Z,994.7
2018-07-04T07:46:33.758Z,994.7
2018-07-04T07:46:53.977Z,994.8
2018-07-04T07:47:14.167Z,994.7
2018-07-04T07:47:34.355Z,994.7
2018-07-04T07:47:54.509Z,994.7
2018-07-04T07:48:14.683Z,994.7
2018-07-04T07:48:34.885Z,994.7
2018-07-04T07:48:55.704Z,994.7
2018-07-04T07:49:15.856Z,994.7
2018-07-04T07:49:36.964Z,994.7
2018-07-04T07:49:57.135Z,994.7
2018-07-04T07:50:17.303Z,994.7
2018-07-04T07:50:37.474Z,994.7
2018-07-04T07:50:57.651Z,994.7
2018-07-04T07:51:17.866Z,994.7
2018-07-04T07:51:39.437Z,994.7
2018-07-04T07:51:59.653Z,994.7
2018-07-04T07:52:19.865Z,994.7
2018-07-04T07:52:40.036Z,994.7
2018-07-04T07:53:00.245Z,994.7
2018-07-04T07:53:20.468Z,994.7
2018-07-04T07:53:40.666Z,994.7
2018-07-04T07:54:00.855Z,994.7
2018-07-04T07:54:21.058Z,994.7
2018-07-04T07:54:41.219Z,994.7
2018-07-04T07:55:01.472Z,994.7
2018-07-04T07:55:21.655Z,994.7
2018-07-04T07:55:41.800Z,994.7
2018-07-04T07:56:01.960Z,994.7
2018-07-04T07:56:22.181Z,994.7
2018-07-04T07:56:42.413Z,994.7
2018-07-04T07:57:02.587Z,994.7
2018-07-04T07:57:22.806Z,994.7
2018-07-04T07:57:42.998Z,994.7
2018-07-04T07:58:03.835Z,994.7
2018-07-04T07:58:24.020Z,994.7
2018-07-04T07:58:44.222Z,994.8
2018-07-04T07:59:05.820Z,994.7
2018-07-04T07:59:25.982Z,994.7
2018-07-04T07:59:46.157Z,994.7
2018-07-04T08:00:06.325Z,994.7
2018-07-04T08:00:26.516Z,994.7
2018-07-04T08:00:46.757Z,994.7
2018-07-04T08:01:06.972Z,994.7
2018-07-04T08:01:27.180Z,994.7
2018-07-04T08:01:47.450Z,994.7
2018-07-04T08:02:07.594Z,994.7
2018-07-04T08:02:27.743Z,994.7
2018-07-04T08:02:47.901Z,994.7
2018-07-04T08:03:08.072Z,994.7
2018-07-04T08:03:28.320Z,994.7
2018-07-04T08:03:48.546Z,994.7
2018-07-04T08:04:08.783Z,994.7
2018-07-04T08:04:28.952Z,994.7
2018-07-04T08:04:49.132Z,994.6
2018-07-04T08:05:09.827Z,994.7
2018-07-04T08:05:29.958Z,994.7
2018-07-04T08:05:51.021Z,994.6
2018-07-04T08:06:11.316Z,994.7
2018-07-04T08:06:33.413Z,994.6
2018-07-04T08:06:54.918Z,994.7
2018-07-04T08:07:15.089Z,994.6
2018-07-04T08:07:35.270Z,994.7
2018-07-04T08:07:55.429Z,994.6
2018-07-04T08:08:15.638Z,994.6
2018-07-04T08:08:35.824Z,994.6
2018-07-04T08:09:00.052Z,994.6
2018-07-04T08:09:20.224Z,994.6
2018-07-04T08:09:40.380Z,994.6
2018-07-04T08:10:00.542Z,994.6
2018-07-04T08:10:20.694Z,994.6
2018-07-04T08:10:41.434Z,994.6
2018-07-04T08:11:01.602Z,994.6
2018-07-04T08:11:21.752Z,994.6
2018-07-04T08:11:41.940Z,994.6
2018-07-04T08:12:02.177Z,994.7
2018-07-04T08:12:22.309Z,994.6
2018-07-04T08:12:42.535Z,994.6
2018-07-04T08:13:02.671Z,994.6
2018-07-04T08:13:22.820Z,994.6
2018-07-04T08:13:43.004Z,994.7
2018-07-04T08:14:03.887Z,994.6
2018-07-04T08:14:24.114Z,994.7
2018-07-04T08:14:44.917Z,994.6
2018-07-04T08:15:05.086Z,994.7
2018-07-04T08:15:25.262Z,994.7
2018-07-04T08:15:45.476Z,994.6
2018-07-04T08:16:06.414Z,994.6
2018-07-04T08:16:26.557Z,994.7
2018-07-04T08:16:46.707Z,994.7
2018-07-04T08:17:06.935Z,994.7
2018-07-04T08:17:27.139Z,994.7
2018-07-04T08:17:47.312Z,994.7
2018-07-04T08:18:07.464Z,994.7
2018-07-04T08:18:28.838Z,994.7
2018-07-04T08:18:49.019Z,994.7
2018-07-04T08:19:09.251Z,994.7
2018-07-04T08:19:29.434Z,994.6
2018-07-04T08:19:50.283Z,994.6
2018-07-04T08:20:10.490Z,994.6
2018-07-04T08:20:30.647Z,994.6
2018-07-04T08:20:50.815Z,994.7
2018-07-04T08:21:10.987Z,994.6
2018-07-04T08:21:31.150Z,994.6
2018-07-04T08:21:51.289Z,994.6
2018-07-04T08:22:11.465Z,994.6
2018-07-04T08:22:31.629Z,994.6
2018-07-04T08:22:51.803Z,994.6
2018-07-04T08:23:11.965Z,994.6
2018-07-04T08:23:32.159Z,994.7
2018-07-04T08:23:52.318Z,994.7
2018-07-04T08:24:12.466Z,994.6
2018-07-04T08:24:32.663Z,994.6
2018-07-04T08:24:53.542Z,994.6
2018-07-04T08:25:13.717Z,994.6
2018-07-04T08:25:33.918Z,994.6
2018-07-04T08:25:54.056Z,994.7
2018-07-04T08:26:14.241Z,994.6
2018-07-04T08:26:34.407Z,994.6
2018-07-04T08:26:54.561Z,994.6
2018-07-04T08:27:14.720Z,994.6
2018-07-04T08:27:35.538Z,994.6
2018-07-04T08:27:55.686Z,994.6
2018-07-04T08:28:15.853Z,994.6
2018-07-04T08:28:36.015Z,994.6
2018-07-04T08:28:56.169Z,994.6
2018-07-04T08:29:16.344Z,994.6
2018-07-04T08:29:36.514Z,994.6
2018-07-04T08:29:56.664Z,994.6
2018-07-04T08:30:16.863Z,994.6
2018-07-04T08:30:37.033Z,994.6
2018-07-04T08:30:57.231Z,994.6
2018-07-04T08:31:17.379Z,994.6
2018-07-04T08:31:37.555Z,994.6
2018-07-04T08:31:58.572Z,994.6
2018-07-04T08:32:19.821Z,994.6
2018-07-04T08:32:40.021Z,994.6
2018-07-04T08:33:00.188Z,994.6
2018-07-04T08:33:20.583Z,994.6
2018-07-04T08:33:41.025Z,994.6
2018-07-04T08:34:01.268Z,994.6
2018-07-04T08:34:21.490Z,994.6
2018-07-04T08:34:41.665Z,994.6
2018-07-04T08:35:02.430Z,994.6
2018-07-04T08:35:23.416Z,994.6
2018-07-04T08:35:44.571Z,994.6
2018-07-04T08:36:04.740Z,994.6
2018-07-04T08:36:24.926Z,994.6
2018-07-04T08:36:45.141Z,994.6
2018-07-04T08:37:06.060Z,994.6
2018-07-04T08:37:26.224Z,994.6
2018-07-04T08:37:46.343Z,994.6
2018-07-04T08:38:06.531Z,994.6
2018-07-04T08:38:26.685Z,994.6
2018-07-04T08:38:46.854Z,994.6
2018-07-04T08:39:07.018Z,994.6
2018-07-04T08:39:27.187Z,994.6
2018-07-04T08:39:47.369Z,994.6
2018-07-04T08:40:07.517Z,994.6
2018-07-04T08:40:27.690Z,994.6
2018-07-04T08:40:47.856Z,994.6
2018-07-04T08:41:08.027Z,994.6
2018-07-04T08:41:28.188Z,994.6
2018-07-04T08:41:48.415Z,994.6
2018-07-04T08:42:10.111Z,994.6
2018-07-04T08:42:31.054Z,994.6
2018-07-04T08:42:51.205Z,994.6
2018-07-04T08:43:12.869Z,994.6
2018-07-04T08:43:33.026Z,994.6
2018-07-04T08:43:54.091Z,994.6
2018-07-04T08:44:14.230Z,994.6
2018-07-04T08:44:34.431Z,994.7
2018-07-04T08:44:54.605Z,994.6
2018-07-04T08:45:14.756Z,994.6
2018-07-04T08:45:34.909Z,994.6
2018-07-04T08:45:55.054Z,994.6
2018-07-04T08:46:15.254Z,994.6
2018-07-04T08:46:35.397Z,994.6
2018-07-04T08:46:55.581Z,994.6
2018-07-04T08:47:16.349Z,994.6
2018-07-04T08:47:36.509Z,994.6
2018-07-04T08:47:56.687Z,994.6
2018-07-04T08:48:17.367Z,994.6
2018-07-04T08:48:37.570Z,994.6
2018-07-04T08:48:57.728Z,994.6
2018-07-04T08:49:17.873Z,994.6
2018-07-04T08:49:38.563Z,994.6
2018-07-04T08:49:58.740Z,994.6
2018-07-04T08:50:18.892Z,994.6
2018-07-04T08:50:39.131Z,994.6
2018-07-04T08:51:00.007Z,994.6
2018-07-04T08:51:20.215Z,994.6
2018-07-04T08:51:40.394Z,994.5
2018-07-04T08:52:00.497Z,994.6
2018-07-04T08:52:20.688Z,994.6
2018-07-04T08:52:40.917Z,994.6
2018-07-04T08:53:01.661Z,994.6
2018-07-04T08:53:21.838Z,994.6
2018-07-04T08:53:42.118Z,994.6
2018-07-04T08:54:02.422Z,994.6
2018-07-04T08:54:23.660Z,994.6
2018-07-04T08:54:43.844Z,994.6
2018-07-04T08:55:03.997Z,994.5
2018-07-04T08:55:24.191Z,994.6
2018-07-04T08:55:44.356Z,994.5
2018-07-04T08:56:04.556Z,994.6
2018-07-04T08:56:24.717Z,994.6
2018-07-04T08:56:44.934Z,994.6
2018-07-04T08:57:05.096Z,994.5
2018-07-04T08:57:25.225Z,994.6
2018-07-04T08:57:45.944Z,994.5
2018-07-04T08:58:07.682Z,994.5
2018-07-04T08:58:28.114Z,994.5
2018-07-04T08:58:49.197Z,994.6
2018-07-04T08:59:09.363Z,994.5
2018-07-04T08:59:29.521Z,994.5
2018-07-04T08:59:49.658Z,994.5
2018-07-04T09:00:09.873Z,994.5
2018-07-04T09:00:30.034Z,994.5
2018-07-04T09:00:50.189Z,994.5
2018-07-04T09:01:10.467Z,994.6
2018-07-04T09:01:30.683Z,994.5
2018-07-04T09:01:50.844Z,994.6
2018-07-04T09:02:11.015Z,994.6
2018-07-04T09:02:31.169Z,994.6
2018-07-04T09:02:51.327Z,994.6
2018-07-04T09:03:11.478Z,994.5
2018-07-04T09:03:31.650Z,994.5
2018-07-04T09:03:51.813Z,994.6
2018-07-04T09:04:12.012Z,994.5
2018-07-04T09:04:32.213Z,994.5
2018-07-04T09:04:52.353Z,994.5
2018-07-04T09:05:13.161Z,994.5
2018-07-04T09:05:33.354Z,994.5
2018-07-04T09:05:54.081Z,994.5
2018-07-04T09:06:15.638Z,994.5
2018-07-04T09:06:37.343Z,994.5
2018-07-04T09:06:57.498Z,994.5
2018-07-04T09:07:37.264Z,994.5
2018-07-04T09:07:57.441Z,994.4
2018-07-04T09:08:17.622Z,994.5
2018-07-04T09:08:37.791Z,994.4
2018-07-04T09:08:57.962Z,994.5
2018-07-04T09:09:18.115Z,994.5
2018-07-04T09:09:38.311Z,994.5
2018-07-04T09:09:58.552Z,994.5
2018-07-04T09:10:18.734Z,994.4
2018-07-04T09:10:38.943Z,994.5
2018-07-04T09:10:59.166Z,994.5
2018-07-04T09:11:19.405Z,994.5
2018-07-04T09:11:39.758Z,994.4
2018-07-04T09:12:01.219Z,994.5
2018-07-04T09:12:21.430Z,994.5
2018-07-04T09:12:41.732Z,994.5
2018-07-04T09:13:01.926Z,994.5
2018-07-04T09:13:22.121Z,994.5
2018-07-04T09:13:42.277Z,994.4
2018-07-04T09:14:02.469Z,994.4
2018-07-04T09:14:22.663Z,994.4
2018-07-04T09:14:42.858Z,994.4
2018-07-04T09:15:03.037Z,994.4
2018-07-04T09:15:23.193Z,994.4
2018-07-04T09:15:43.380Z,994.4
2018-07-04T09:16:03.622Z,994.4
2018-07-04T09:16:23.850Z,994.4
2018-07-04T09:16:44.046Z,994.4
2018-07-04T09:17:04.968Z,994.4
2018-07-04T09:17:25.176Z,994.4
2018-07-04T09:17:45.330Z,994.4
2018-07-04T09:18:06.311Z,994.4
2018-07-04T09:18:26.518Z,994.4
2018-07-04T09:18:46.750Z,994.4
2018-07-04T09:19:06.987Z,994.4
2018-07-04T09:19:27.208Z,994.4
2018-07-04T09:19:48.451Z,994.4
2018-07-04T09:20:08.726Z,994.4
2018-07-04T09:20:28.953Z,994.4
2018-07-04T09:20:49.807Z,994.4
2018-07-04T09:21:09.986Z,994.4
2018-07-04T09:21:30.176Z,994.4
2018-07-04T09:21:50.452Z,994.4
2018-07-04T09:22:10.634Z,994.4
2018-07-04T09:22:30.851Z,994.4
2018-07-04T09:22:51.187Z,994.4
2018-07-04T09:23:11.434Z,994.4
2018-07-04T09:23:31.588Z,994.4
2018-07-04T09:23:51.705Z,994.4
2018-07-04T09:24:12.016Z,994.4
2018-07-04T09:24:32.193Z,994.4
2018-07-04T09:24:52.385Z,994.4
2018-07-04T09:25:12.545Z,994.3
2018-07-04T09:25:32.704Z,994.4
2018-07-04T09:25:52.884Z,994.3
2018-07-04T09:26:13.824Z,994.4
2018-07-04T09:26:33.989Z,994.3
2018-07-04T09:26:54.138Z,994.4
2018-07-04T09:27:14.301Z,994.4
2018-07-04T09:27:34.467Z,994.3
2018-07-04T09:27:54.637Z,994.3
2018-07-04T09:28:14.789Z,994.3
2018-07-04T09:28:34.987Z,994.3
2018-07-04T09:28:55.195Z,994.4
2018-07-04T09:29:15.368Z,994.4
2018-07-04T09:29:35.585Z,994.3
2018-07-04T09:29:56.481Z,994.3
2018-07-04T09:30:16.669Z,994.3
2018-07-04T09:30:36.941Z,994.3
2018-07-04T09:30:57.110Z,994.4
2018-07-04T09:31:17.269Z,994.3
2018-07-04T09:31:37.503Z,994.4
2018-07-04T09:31:57.669Z,994.3
2018-07-04T09:32:17.840Z,994.3
2018-07-04T09:32:38.051Z,994.3
2018-07-04T09:32:58.219Z,994.3
2018-07-04T09:33:18.432Z,994.3
2018-07-04T09:33:38.604Z,994.3
2018-07-04T09:33:58.771Z,994.3
2018-07-04T09:34:18.964Z,994.4
2018-07-04T09:34:39.197Z,994.3
2018-07-04T09:34:59.452Z,994.3
2018-07-04T09:35:19.628Z,994.3
2018-07-04T09:35:39.837Z,994.3
2018-07-04T09:36:00.183Z,994.3
2018-07-04T09:36:20.383Z,994.3
2018-07-04T09:36:40.567Z,994.3
2018-07-04T09:37:00.798Z,994.3
2018-07-04T09:37:20.963Z,994.3
2018-07-04T09:37:41.182Z,994.3
2018-07-04T09:38:01.304Z,994.3
2018-07-04T09:38:21.573Z,994.3
2018-07-04T09:38:41.860Z,994.3
2018-07-04T09:39:02.038Z,994.3
2018-07-04T09:39:22.207Z,994.3
2018-07-04T09:39:42.482Z,994.3
2018-07-04T09:40:02.758Z,994.3
2018-07-04T09:40:23.033Z,994.3
2018-07-04T09:40:43.259Z,994.3
2018-07-04T09:41:04.382Z,994.3
2018-07-04T09:41:25.401Z,994.3
2018-07-04T09:41:45.645Z,994.3
2018-07-04T09:42:05.948Z,994.3
2018-07-04T09:42:27.345Z,994.3
2018-07-04T09:42:47.707Z,994.3
2018-07-04T09:43:07.894Z,994.3
2018-07-04T09:43:28.113Z,994.3
2018-07-04T09:43:48.524Z,994.3
2018-07-04T09:44:08.634Z,994.3
2018-07-04T09:44:28.807Z,994.3
2018-07-04T09:44:50.588Z,994.3
2018-07-04T09:45:11.401Z,994.2
2018-07-04T09:45:31.669Z,994.2
2018-07-04T09:45:51.900Z,994.3
2018-07-04T09:46:12.093Z,994.2
2018-07-04T09:46:32.281Z,994.2
2018-07-04T09:46:52.477Z,994.2
2018-07-04T09:47:12.751Z,994.2
2018-07-04T09:47:32.940Z,994.2
2018-07-04T09:47:53.153Z,994.2
2018-07-04T09:48:13.303Z,994.3
2018-07-04T09:48:33.574Z,994.3
2018-07-04T09:48:53.771Z,994.3
2018-07-04T09:49:13.913Z,994.3
2018-07-04T09:49:34.343Z,994.3
2018-07-04T09:49:54.597Z,994.3
2018-07-04T09:50:14.803Z,994.3
2018-07-04T09:50:34.960Z,994.3
2018-07-04T09:50:55.106Z,994.3
2018-07-04T09:51:15.339Z,994.2
2018-07-04T09:51:37.064Z,994.3
2018-07-04T09:51:57.253Z,994.3
2018-07-04T09:52:17.425Z,994.3
2018-07-04T09:52:37.604Z,994.3
2018-07-04T09:52:57.834Z,994.3
2018-07-04T09:53:17.993Z,994.3
2018-07-04T09:53:38.178Z,994.2
2018-07-04T09:53:58.339Z,994.3
2018-07-04T09:54:19.418Z,994.3
2018-07-04T09:54:39.578Z,994.3
2018-07-04T09:54:59.758Z,994.3